Porthleven, United Kingdom
Current Conditions -  °F | °C
As of 12:50 PM on Friday 24 Oct 2014 (Local Time) from EGDR Reporting Station
Moderate Rain Moderate Rain  
Wind Chill: 57°   Ceiling: 100
Heat Index: 57°   Visibility: 0.12mi
Dew Point: 57°   Wind: 12mph
Humidity: 100%   Direction: 230°SW
Pressure: 29.97"   Gusts: NA
Location:  50.09°N, 5.32°W
Report Text: EGDR 241150Z 23010KT 0200 RADZ BKN000 OVC001 14/14 Q1015 RED NOSIG
Loading
Personal Weather Stations






























Interactive Weather Map New forecast layout! Learn more

10-Day Weather Forecast

Advertisements
Track Severe Weather on mobile